Time;durP1;ratioP1;P1;durP2;ratioP2;P2;SDS_P1;SDS_P2;PMS_P1;PMS_P2;Temp;Humidity;BMP_temperature;BMP_pressure;BME280_temperature;BME280_humidity;BME280_pressure;Samples;Min_cycle;Max_cycle;Signal;HPM_P1;HPM_P2
2021/07/26 00:01:29;;;;;;;;;7.00;7.00;;;;;19.75;75.57;100679.81;5005744;28;45543;-67
2021/07/26 00:03:54;;;;;;;;;7.50;6.75;;;;;19.77;75.65;100680.44;5006005;28;45684;-67
2021/07/26 00:06:20;;;;;;;;;8.75;8.00;;;;;19.77;75.37;100673.19;5002181;28;45594;-66
2021/07/26 00:08:45;;;;;;;;;7.25;7.25;;;;;19.75;75.02;100675.25;4992177;28;45748;-66
2021/07/26 00:11:11;;;;;;;;;9.00;7.00;;;;;19.77;75.48;100677.75;5007234;28;45653;-65
2021/07/26 00:13:38;;;;;;;;;7.50;7.00;;;;;19.77;75.57;100672.38;5007489;28;45567;-64
2021/07/26 00:16:05;;;;;;;;;9.25;8.50;;;;;19.77;75.81;100667.03;5002030;28;45644;-65
2021/07/26 00:18:31;;;;;;;;;7.25;6.50;;;;;19.79;75.36;100674.88;5005645;28;45486;-74
2021/07/26 00:20:59;;;;;;;;;7.25;6.00;;;;;19.78;75.56;100671.34;5008002;28;45485;-70
2021/07/26 00:23:25;;;;;;;;;8.00;7.00;;;;;19.78;75.41;100668.66;5006250;28;45567;-73
2021/07/26 00:25:51;;;;;;;;;8.25;8.25;;;;;19.77;75.45;100657.13;5008954;28;45557;-69
2021/07/26 00:28:16;;;;;;;;;6.75;6.75;;;;;19.77;75.54;100657.13;5006145;28;45450;-67
2021/07/26 00:30:42;;;;;;;;;7.25;7.00;;;;;19.78;74.80;100660.63;5001099;28;46153;-65
2021/07/26 00:34:27;;;;;;;;;7.50;6.50;;;;;19.78;75.13;100668.66;5006877;28;45601;-66
2021/07/26 00:36:35;;;;;;;;;7.25;6.50;;;;;19.76;74.83;100663.53;4993538;28;45478;-71
2021/07/26 00:39:05;;;;;;;;;8.00;7.00;;;;;19.76;74.97;100668.06;5003806;28;45905;-66
2021/07/26 00:41:32;;;;;;;;;8.75;7.75;;;;;19.76;74.45;100671.56;5005920;28;45827;-68
2021/07/26 00:43:58;;;;;;;;;8.75;7.00;;;;;19.75;74.39;100671.75;5010091;28;45614;-71
2021/07/26 00:46:24;;;;;;;;;8.00;7.50;;;;;19.74;74.61;100670.13;5003180;28;45471;-72
2021/07/26 00:48:50;;;;;;;;;8.00;7.25;;;;;19.74;74.17;100667.44;4999371;28;45530;-67
2021/07/26 00:51:15;;;;;;;;;6.75;6.00;;;;;19.73;74.18;100672.00;5005550;28;45469;-65
2021/07/26 00:53:42;;;;;;;;;7.00;6.75;;;;;19.73;74.62;100663.94;5004361;28;45455;-73
2021/07/26 00:56:07;;;;;;;;;7.25;6.00;;;;;19.75;74.52;100672.59;5007453;28;45661;-67
2021/07/26 00:58:34;;;;;;;;;7.00;7.00;;;;;19.77;74.67;100677.75;5007812;28;45584;-67
2021/07/26 01:01:00;;;;;;;;;8.00;8.00;;;;;19.76;74.36;100666.22;5001698;28;45565;-66
2021/07/26 01:03:26;;;;;;;;;7.00;7.00;;;;;19.78;73.92;100674.03;5003531;28;45622;-70
2021/07/26 01:05:51;;;;;;;;;6.25;5.25;;;;;19.78;74.67;100674.03;5000183;28;45445;-71
2021/07/26 01:08:17;;;;;;;;;8.50;7.25;;;;;19.79;74.01;100674.88;5004468;28;45587;-72
2021/07/26 01:10:42;;;;;;;;;8.75;8.00;;;;;19.79;74.59;100675.69;5005636;28;45470;-71
2021/07/26 01:13:08;;;;;;;;;6.75;6.75;;;;;19.79;74.12;100669.50;5000516;28;45902;-73
2021/07/26 01:15:33;;;;;;;;;8.50;8.50;;;;;19.80;74.02;100671.13;5003782;28;45625;-73
2021/07/26 01:18:21;;;;;;;;;9.75;8.75;;;;;19.80;73.88;100673.81;5005946;28;45597;-66
2021/07/26 01:20:49;;;;;;;;;8.00;8.00;;;;;19.77;73.46;100677.75;5001749;28;45976;-66
2021/07/26 01:23:14;;;;;;;;;13.50;10.25;;;;;19.78;74.18;100679.38;5009117;28;45593;-73
2021/07/26 01:25:40;;;;;;;;;10.25;10.25;;;;;19.79;74.20;100677.53;5011191;28;45887;-66
2021/07/26 01:28:05;;;;;;;;;11.00;9.00;;;;;19.77;74.73;100680.44;4995211;28;45463;-70
2021/07/26 01:30:33;;;;;;;;;13.50;11.25;;;;;19.79;74.55;100678.38;5007316;28;45804;-67
2021/07/26 01:32:59;;;;;;;;;16.75;10.75;;;;;19.79;74.35;100681.03;5002829;28;45658;-67
2021/07/26 01:35:24;;;;;;;;;13.00;12.25;;;;;19.79;73.95;100675.69;5005205;28;57279;-72
2021/07/26 01:37:50;;;;;;;;;15.00;11.50;;;;;19.77;73.81;100677.75;5003160;28;45495;-71
2021/07/26 01:40:15;;;;;;;;;13.75;12.00;;;;;19.78;74.61;100679.38;5002293;28;45693;-67
2021/07/26 01:42:42;;;;;;;;;15.50;13.25;;;;;19.77;73.52;100683.13;5004731;28;45459;-66
2021/07/26 01:45:08;;;;;;;;;14.00;10.00;;;;;19.77;73.91;100685.78;5001718;28;45478;-72
2021/07/26 01:47:38;;;;;;;;;11.25;10.75;;;;;19.76;73.30;100689.53;5006347;28;45633;-71
2021/07/26 01:50:08;;;;;;;;;15.00;15.00;;;;;19.74;73.60;100688.91;4985068;28;47928;-65
2021/07/26 01:52:33;;;;;;;;;14.00;12.00;;;;;19.71;73.22;100689.34;4990161;28;45664;-66
2021/07/26 01:54:59;;;;;;;;;16.75;15.00;;;;;19.70;73.53;100683.13;4984454;28;45818;-70
2021/07/26 01:57:24;;;;;;;;;12.25;11.75;;;;;19.69;72.84;100686.03;4984671;28;45564;-71
2021/07/26 01:59:51;;;;;;;;;13.00;11.25;;;;;19.68;73.10;100695.94;4984264;28;45472;-72
2021/07/26 02:02:16;;;;;;;;;12.00;11.00;;;;;19.68;73.21;100695.09;4987927;28;45554;-66
2021/07/26 02:04:42;;;;;;;;;11.50;11.50;;;;;19.65;73.05;100698.16;4984682;28;45467;-71
2021/07/26 02:07:07;;;;;;;;;13.50;11.50;;;;;19.63;72.89;100697.56;4984270;28;45554;-67
2021/07/26 02:09:34;;;;;;;;;10.50;10.50;;;;;19.60;73.36;100706.00;4983651;28;45656;-71
2021/07/26 02:12:01;;;;;;;;;14.25;10.00;;;;;19.59;72.14;100709.75;4985491;28;45607;-67
2021/07/26 02:14:27;;;;;;;;;11.25;10.75;;;;;19.54;72.73;100707.69;4985545;28;45512;-72
2021/07/26 02:16:53;;;;;;;;;14.25;11.75;;;;;19.50;72.53;100704.56;4987748;28;45516;-72
2021/07/26 02:19:19;;;;;;;;;12.00;9.50;;;;;19.49;72.92;100718.22;4983764;28;47282;-66
2021/07/26 02:21:44;;;;;;;;;10.00;9.00;;;;;19.46;72.72;100719.44;4982540;28;45611;-66
2021/07/26 02:24:10;;;;;;;;;12.25;10.50;;;;;19.44;72.76;100713.47;4984464;28;45809;-71
2021/07/26 02:26:35;;;;;;;;;11.00;9.00;;;;;19.43;72.51;100719.03;4983686;28;45490;-67
2021/07/26 02:29:00;;;;;;;;;11.00;8.00;;;;;19.37;72.20;100720.69;4979007;28;46996;-72
2021/07/26 02:31:26;;;;;;;;;9.00;7.00;;;;;19.36;72.21;100727.06;4986526;28;45561;-72
2021/07/26 02:33:51;;;;;;;;;9.00;8.00;;;;;19.33;72.10;100727.47;4986266;28;45729;-72
2021/07/26 02:36:17;;;;;;;;;8.00;8.00;;;;;19.30;72.39;100725.22;4980650;28;45512;-67
2021/07/26 02:38:42;;;;;;;;;9.00;7.00;;;;;19.28;72.68;100729.97;4984042;28;46251;-71
2021/07/26 02:41:09;;;;;;;;;7.75;7.00;;;;;19.25;72.76;100730.38;4986686;28;45486;-73
2021/07/26 02:43:35;;;;;;;;;8.00;7.75;;;;;19.20;72.45;100724.81;4986079;28;45581;-71
2021/07/26 02:46:00;;;;;;;;;11.25;9.00;;;;;19.14;72.54;100723.78;4984344;28;45406;-71
2021/07/26 02:48:25;;;;;;;;;6.50;5.50;;;;;19.09;72.67;100723.59;4986530;28;45558;-68
2021/07/26 02:50:51;;;;;;;;;8.00;7.50;;;;;19.04;72.17;100729.56;4986586;28;45482;-67
2021/07/26 02:53:16;;;;;;;;;10.75;8.00;;;;;19.00;72.64;100727.50;5001334;28;45496;-72
2021/07/26 02:55:41;;;;;;;;;7.50;7.00;;;;;18.96;72.73;100728.91;4997312;28;45649;-69
2021/07/26 02:58:07;;;;;;;;;7.75;7.00;;;;;18.91;72.81;100732.22;5001847;28;46974;-69
2021/07/26 03:00:32;;;;;;;;;8.75;8.50;;;;;18.87;73.25;100736.34;4999984;28;45506;-70
2021/07/26 03:02:57;;;;;;;;;13.50;10.25;;;;;18.81;72.83;100737.13;5002088;28;45475;-66
2021/07/26 03:05:23;;;;;;;;;8.50;8.50;;;;;18.75;73.15;100732.56;5007035;28;45553;-69
2021/07/26 03:07:48;;;;;;;;;7.50;6.25;;;;;18.71;73.23;100737.50;5009458;28;46954;-71
2021/07/26 03:10:14;;;;;;;;;9.25;8.75;;;;;18.67;73.46;100738.94;5003418;28;45494;-71
2021/07/26 03:12:39;;;;;;;;;9.50;8.25;;;;;18.63;73.74;100738.50;5003423;28;45489;-71
2021/07/26 03:15:05;;;;;;;;;9.75;8.75;;;;;18.60;73.84;100735.44;4989038;28;45618;-68
2021/07/26 03:17:30;;;;;;;;;14.00;10.75;;;;;18.55;74.17;100738.72;4988843;28;50771;-65
2021/07/26 03:19:56;;;;;;;;;6.75;6.75;;;;;18.51;74.08;100740.13;5010699;28;45590;-65
2021/07/26 03:22:56;;;;;;;;;11.75;9.00;;;;;18.46;74.55;100734.56;5004994;28;45497;-73
2021/07/26 03:25:21;;;;;;;;;9.50;9.00;;;;;18.41;74.66;100732.47;5007855;28;45560;-72
2021/07/26 03:27:48;;;;;;;;;10.25;6.75;;;;;18.38;74.77;100738.22;5000388;28;45645;-65
2021/07/26 03:30:15;;;;;;;;;11.00;9.75;;;;;18.35;74.26;100730.63;4990634;28;45631;-65
2021/07/26 03:32:40;;;;;;;;;13.75;9.75;;;;;18.34;74.36;100736.16;4999484;28;45668;-64
2021/07/26 03:35:06;;;;;;;;;12.75;10.50;;;;;18.30;74.58;100729.53;5009988;28;45833;-65
2021/07/26 03:37:31;;;;;;;;;12.50;10.50;;;;;18.28;75.14;100735.13;5008930;28;46226;-69
2021/07/26 03:39:56;;;;;;;;;12.00;9.25;;;;;18.26;75.37;100745.19;5006896;28;49102;-64
2021/07/26 03:42:22;;;;;;;;;8.00;8.00;;;;;18.26;75.30;100751.34;5004163;28;45828;-73
2021/07/26 03:44:47;;;;;;;;;15.00;11.25;;;;;18.25;75.42;100744.38;5007543;28;45674;-68
2021/07/26 03:47:12;;;;;;;;;12.00;11.50;;;;;18.26;75.51;100747.84;5003986;28;50704;-71
2021/07/26 03:49:38;;;;;;;;;14.25;11.00;;;;;18.26;75.67;100740.66;5008078;28;45494;-65
2021/07/26 03:52:03;;;;;;;;;11.50;8.50;;;;;18.28;75.41;100748.50;5003643;28;45551;-63
2021/07/26 03:54:29;;;;;;;;;11.50;11.25;;;;;18.29;75.71;100754.66;5003981;28;45521;-63
2021/07/26 03:56:57;;;;;;;;;14.00;13.50;;;;;18.29;76.46;100752.81;5006361;28;45509;-63
2021/07/26 03:59:23;;;;;;;;;15.00;12.75;;;;;18.30;75.38;100762.50;5004947;28;45482;-63
2021/07/26 04:01:49;;;;;;;;;12.50;11.50;;;;;18.32;75.71;100759.59;5006076;28;45537;-63
2021/07/26 04:04:16;;;;;;;;;14.25;12.50;;;;;18.33;75.97;100766.63;5006808;28;45927;-64
2021/07/26 04:06:43;;;;;;;;;13.25;12.50;;;;;18.35;75.50;100756.56;5004546;28;46177;-63
2021/07/26 04:09:08;;;;;;;;;13.25;10.75;;;;;18.37;75.27;100759.81;5005802;28;45533;-66
2021/07/26 04:11:37;;;;;;;;;15.25;13.75;;;;;18.40;75.76;100756.78;5007555;28;45835;-64
2021/07/26 04:14:07;;;;;;;;;13.25;12.00;;;;;18.41;75.43;100755.75;5007898;28;45528;-64
2021/07/26 04:16:32;;;;;;;;;15.50;13.75;;;;;18.41;75.32;100745.03;5005090;28;47124;-68
2021/07/26 04:19:00;;;;;;;;;16.50;13.50;;;;;18.43;75.34;100751.84;5005380;28;45486;-68
2021/07/26 04:21:34;;;;;;;;;15.00;12.50;;;;;18.45;75.65;100754.31;5004067;28;45454;-63
2021/07/26 04:24:02;;;;;;;;;13.75;11.50;;;;;18.47;75.82;100763.81;4998892;28;45546;-71
2021/07/26 04:26:29;;;;;;;;;18.25;15.00;;;;;18.51;76.08;100764.22;5003077;28;46098;-69
2021/07/26 04:28:55;;;;;;;;;13.75;12.75;;;;;18.52;75.67;100763.19;5006199;28;45599;-72
2021/07/26 04:31:20;;;;;;;;;19.00;15.50;;;;;18.55;75.56;100757.44;5002248;28;45804;-66
2021/07/26 04:33:46;;;;;;;;;16.75;13.25;;;;;18.59;75.63;100765.88;5004466;28;45616;-71
2021/07/26 04:36:11;;;;;;;;;15.25;13.50;;;;;18.62;75.25;100765.47;5001773;28;47049;-72
2021/07/26 04:38:36;;;;;;;;;15.50;12.75;;;;;18.64;75.54;100761.59;4994935;28;45610;-70
2021/07/26 04:41:02;;;;;;;;;17.75;16.75;;;;;18.66;75.53;100762.19;5005858;28;45587;-65
2021/07/26 04:43:28;;;;;;;;;17.75;15.00;;;;;18.67;75.19;100766.53;5001878;28;45553;-64
2021/07/26 04:45:55;;;;;;;;;19.50;11.50;;;;;18.70;75.29;100760.78;4998130;28;46326;-65
2021/07/26 04:48:21;;;;;;;;;13.75;11.75;;;;;18.74;75.16;100765.72;5001505;28;45457;-66
2021/07/26 04:50:46;;;;;;;;;16.00;14.00;;;;;18.75;75.67;100765.53;5003887;28;45644;-70
2021/07/26 04:53:12;;;;;;;;;17.00;15.50;;;;;18.78;75.50;100770.50;5007229;28;45470;-63
2021/07/26 04:55:37;;;;;;;;;17.25;13.25;;;;;18.80;75.31;100773.00;5007735;28;45491;-71
2021/07/26 04:58:02;;;;;;;;;15.00;13.00;;;;;18.83;74.85;100777.94;5004737;28;45775;-73
2021/07/26 05:00:29;;;;;;;;;18.00;11.75;;;;;18.85;74.75;100775.88;5003932;28;45642;-70
2021/07/26 05:02:54;;;;;;;;;15.00;13.00;;;;;18.85;74.91;100773.19;5007015;28;45589;-66
2021/07/26 05:05:20;;;;;;;;;15.00;14.25;;;;;18.88;75.16;100780.81;5005982;28;47055;-64
2021/07/26 05:07:45;;;;;;;;;14.50;14.00;;;;;18.90;75.04;100784.13;5008933;28;45530;-63
2021/07/26 05:10:11;;;;;;;;;17.00;14.75;;;;;18.93;75.01;100788.25;5005624;28;46730;-72
2021/07/26 05:12:37;;;;;;;;;13.00;12.75;;;;;18.93;74.48;100794.44;5003597;28;45574;-73
2021/07/26 05:15:03;;;;;;;;;13.50;12.50;;;;;18.95;75.00;100791.56;5005390;28;45519;-64
2021/07/26 05:17:29;;;;;;;;;11.50;11.50;;;;;18.97;75.01;100793.00;4983617;28;45747;-66
2021/07/26 05:19:55;;;;;;;;;15.00;14.00;;;;;19.00;75.09;100789.91;5002514;28;45545;-63
2021/07/26 05:22:20;;;;;;;;;11.75;11.75;;;;;19.02;74.69;100793.22;5001951;28;45554;-73
2021/07/26 05:24:46;;;;;;;;;13.25;11.00;;;;;19.01;75.34;100790.72;5001914;28;46612;-65
2021/07/26 05:27:12;;;;;;;;;13.75;11.50;;;;;19.00;75.03;100792.59;5003955;28;45557;-73
2021/07/26 05:29:37;;;;;;;;;9.75;8.00;;;;;19.00;75.59;100795.25;5003535;28;45570;-66
2021/07/26 05:32:03;;;;;;;;;12.25;11.75;;;;;19.01;74.99;100799.59;5013572;28;45465;-72
2021/07/26 05:34:29;;;;;;;;;14.50;11.75;;;;;19.00;74.93;100795.25;5003902;28;45538;-69
2021/07/26 05:36:55;;;;;;;;;10.50;10.25;;;;;18.99;75.21;100793.63;5002439;28;45680;-66
2021/07/26 05:39:23;;;;;;;;;14.25;10.75;;;;;19.02;75.01;100797.75;5003862;28;45800;-72
2021/07/26 05:41:49;;;;;;;;;10.00;9.25;;;;;19.04;75.28;100798.34;5005243;28;45444;-67
2021/07/26 05:44:14;;;;;;;;;13.25;8.00;;;;;19.03;75.37;100794.84;5007765;28;45749;-66
2021/07/26 05:46:40;;;;;;;;;12.25;12.00;;;;;19.03;75.62;100800.22;5007927;28;45388;-65
2021/07/26 05:49:05;;;;;;;;;11.00;9.50;;;;;19.06;75.06;100794.44;5005891;28;45561;-69
2021/07/26 05:51:31;;;;;;;;;10.75;10.50;;;;;19.10;75.46;100800.22;5005493;28;46830;-66
2021/07/26 05:53:56;;;;;;;;;9.25;8.00;;;;;19.10;75.01;100798.38;5005957;28;46285;-63
2021/07/26 05:56:21;;;;;;;;;14.25;7.75;;;;;19.09;74.97;100798.59;5004929;28;45617;-66
2021/07/26 05:58:49;;;;;;;;;13.00;11.25;;;;;19.13;75.13;100797.13;5007521;28;45750;-63
2021/07/26 06:03:58;;;;;;;;;12.25;9.00;;;;;19.26;74.78;100799.00;5007277;28;45567;-70
2021/07/26 06:06:24;;;;;;;;;9.75;8.50;;;;;19.31;74.84;100801.88;5006567;28;45987;-63
2021/07/26 06:08:49;;;;;;;;;10.50;8.25;;;;;19.37;74.53;100800.25;4974646;28;45676;-63
2021/07/26 06:11:14;;;;;;;;;8.00;7.00;;;;;19.43;74.57;100797.56;5008517;28;45567;-66
2021/07/26 06:13:40;;;;;;;;;8.25;8.25;;;;;19.50;74.15;100801.06;5009108;28;46131;-63
2021/07/26 06:16:09;;;;;;;;;6.75;6.75;;;;;19.55;74.62;100803.13;5003134;28;45826;-73
2021/07/26 06:18:36;;;;;;;;;9.25;7.25;;;;;19.61;74.13;100798.78;5004792;28;45485;-73
2021/07/26 06:21:06;;;;;;;;;11.25;8.00;;;;;19.69;73.46;100801.31;5009764;28;45781;-65
2021/07/26 06:23:31;;;;;;;;;10.75;8.25;;;;;19.75;73.63;100803.16;4987384;28;46265;-65
2021/07/26 06:25:56;;;;;;;;;10.75;8.00;;;;;19.79;73.50;100804.41;5011387;28;45566;-64
2021/07/26 06:28:22;;;;;;;;;9.00;9.00;;;;;19.83;73.31;100805.63;5007478;28;45442;-64
2021/07/26 06:30:47;;;;;;;;;9.00;6.00;;;;;19.93;73.63;100806.03;5004573;28;45605;-72
2021/07/26 06:33:12;;;;;;;;;7.50;7.50;;;;;20.01;72.29;100806.84;5006326;28;52005;-69
2021/07/26 06:35:38;;;;;;;;;8.75;8.75;;;;;20.04;72.54;100814.47;5005784;28;45594;-62
2021/07/26 06:38:03;;;;;;;;;11.00;8.00;;;;;20.10;72.27;100811.78;5012335;28;45861;-69
2021/07/26 06:40:31;;;;;;;;;8.75;6.00;;;;;20.11;72.36;100812.59;5006246;28;45630;-63
2021/07/26 06:42:57;;;;;;;;;8.50;6.00;;;;;20.07;71.52;100811.34;5006365;28;46329;-64
2021/07/26 06:45:22;;;;;;;;;8.00;8.00;;;;;20.04;71.62;100811.78;4987261;28;45669;-65
2021/07/26 06:47:49;;;;;;;;;7.00;7.00;;;;;20.06;71.71;100815.91;5008387;28;45602;-71
2021/07/26 06:50:15;;;;;;;;;9.50;8.00;;;;;20.11;71.39;100817.97;5007359;28;45553;-62
2021/07/26 06:52:40;;;;;;;;;6.25;6.25;;;;;20.17;71.66;100822.47;5010797;28;46258;-62
2021/07/26 06:55:06;;;;;;;;;7.00;5.25;;;;;20.27;71.47;100816.66;5004129;28;49799;-68
2021/07/26 06:57:31;;;;;;;;;8.75;7.75;;;;;20.30;71.15;100821.59;5003224;28;45519;-68
2021/07/26 06:59:57;;;;;;;;;8.00;7.00;;;;;20.34;70.79;100822.84;5005277;28;45580;-63
2021/07/26 07:02:22;;;;;;;;;8.50;7.75;;;;;20.36;70.71;100824.28;5004790;28;46260;-64
2021/07/26 07:04:47;;;;;;;;;8.00;6.75;;;;;20.41;70.70;100820.97;5007967;28;45516;-62
2021/07/26 07:07:13;;;;;;;;;7.25;6.25;;;;;20.52;71.02;100819.47;5004578;28;45721;-69
2021/07/26 07:09:38;;;;;;;;;7.00;6.00;;;;;20.60;71.22;100822.78;5007176;28;45960;-71
2021/07/26 07:12:03;;;;;;;;;9.75;8.50;;;;;20.68;70.93;100813.66;5006075;28;45936;-70
2021/07/26 07:14:29;;;;;;;;;10.00;9.00;;;;;20.79;71.11;100823.69;5004178;28;45471;-68
2021/07/26 07:16:54;;;;;;;;;13.50;11.50;;;;;20.90;70.15;100824.09;5016107;28;45541;-69
2021/07/26 07:19:20;;;;;;;;;13.00;10.25;;;;;20.97;69.55;100825.69;5016728;28;45534;-69
2021/07/26 07:21:45;;;;;;;;;11.25;9.25;;;;;21.01;69.54;100824.19;5014309;28;46254;-69
2021/07/26 07:24:11;;;;;;;;;11.00;10.50;;;;;20.97;69.65;100827.56;4997379;28;46124;-68
2021/07/26 07:26:36;;;;;;;;;9.25;9.25;;;;;20.99;69.09;100830.84;5013937;28;45449;-65
2021/07/26 07:29:03;;;;;;;;;10.00;9.50;;;;;21.00;69.40;100827.13;5020674;28;45463;-73
2021/07/26 07:31:36;;;;;;;;;15.75;10.25;;;;;21.00;70.49;100832.50;5011214;28;46225;-64
2021/07/26 07:34:01;;;;;;;;;13.75;11.00;;;;;21.00;71.35;100835.19;5007025;28;45644;-66
2021/07/26 07:36:27;;;;;;;;;11.25;11.00;;;;;21.00;70.78;100835.19;5012800;28;45406;-68
2021/07/26 07:38:53;;;;;;;;;13.75;9.75;;;;;20.98;71.55;100839.94;5013374;28;45842;-62
2021/07/26 07:41:18;;;;;;;;;13.00;12.50;;;;;20.92;71.95;100840.78;5010424;28;46128;-62
2021/07/26 07:43:45;;;;;;;;;11.25;10.75;;;;;20.82;71.87;100846.63;5017969;28;45479;-69
2021/07/26 07:46:11;;;;;;;;;9.75;9.50;;;;;20.71;72.25;100845.44;5011219;28;45520;-69
2021/07/26 07:48:37;;;;;;;;;13.25;9.75;;;;;20.61;72.80;100842.41;5006670;28;45576;-62
2021/07/26 07:51:04;;;;;;;;;10.75;10.75;;;;;20.52;72.58;100846.31;5008236;28;46118;-64
2021/07/26 07:53:29;;;;;;;;;9.50;9.00;;;;;20.46;73.29;100848.00;5011570;28;45775;-68
2021/07/26 07:55:56;;;;;;;;;11.25;10.25;;;;;20.46;73.53;100842.63;5013661;28;46076;-71
2021/07/26 07:58:21;;;;;;;;;10.00;10.00;;;;;20.54;73.87;100844.25;5010344;28;45666;-71
2021/07/26 08:00:51;;;;;;;;;11.75;10.75;;;;;20.63;74.49;100843.00;5011764;28;46058;-66
2021/07/26 08:03:17;;;;;;;;;10.00;10.00;;;;;20.82;73.29;100852.00;5008985;28;45589;-68
2021/07/26 08:05:42;;;;;;;;;14.50;11.00;;;;;21.65;73.84;100846.53;5012474;28;45745;-63
2021/07/26 08:08:08;;;;;;;;;11.25;10.00;;;;;22.32;70.35;100851.28;5010999;28;45597;-62
2021/07/26 08:10:34;;;;;;;;;12.50;10.00;;;;;22.67;69.43;100847.97;5013595;28;46329;-64
2021/07/26 08:13:00;;;;;;;;;13.50;10.00;;;;;22.91;67.80;100854.31;5003719;28;45562;-67
2021/07/26 08:15:25;;;;;;;;;14.50;11.00;;;;;23.26;67.68;100851.75;5001400;28;45641;-66
2021/07/26 08:17:51;;;;;;;;;11.75;10.75;;;;;23.56;66.45;100848.19;4993555;28;45942;-63
2021/07/26 08:20:17;;;;;;;;;15.50;12.00;;;;;24.76;65.58;100848.72;5002997;28;46059;-68
2021/07/26 08:22:44;;;;;;;;;15.75;13.00;;;;;25.81;61.82;100850.00;5006424;28;45596;-63
2021/07/26 08:28:31;;;;;;;;;14.25;11.75;;;;;25.81;59.21;100860.00;4878129;22;45562;-92
2021/07/26 08:30:56;;;;;;;;;13.75;12.25;;;;;25.39;60.45;100863.13;5000684;28;47355;-90
2021/07/26 08:33:21;;;;;;;;;14.50;12.50;;;;;25.78;60.90;100850.50;5016554;28;45623;-88
2021/07/26 08:35:47;;;;;;;;;15.25;12.50;;;;;25.94;59.37;100854.28;5023088;28;49185;-93
2021/07/26 08:38:12;;;;;;;;;13.25;12.25;;;;;26.27;59.76;100858.81;5012459;28;45708;-92
2021/07/26 08:40:37;;;;;;;;;12.75;11.75;;;;;27.27;58.26;100860.50;4999234;28;46937;-93
2021/07/26 08:43:05;;;;;;;;;14.25;12.00;;;;;27.59;56.51;100857.78;5001867;28;45967;-93
2021/07/26 08:45:34;;;;;;;;;13.75;12.00;;;;;27.52;55.57;100863.47;5028816;28;45505;-93
2021/07/26 08:48:05;;;;;;;;;19.75;14.00;;;;;27.22;56.32;100867.50;5005862;28;45510;-93
2021/07/26 08:50:36;;;;;;;;;12.00;10.75;;;;;26.87;56.16;100873.38;5005123;28;48328;-93
2021/07/26 08:53:07;;;;;;;;;11.25;10.25;;;;;26.47;56.94;100874.50;5008080;28;46328;-93
2021/07/26 08:55:34;;;;;;;;;14.25;11.50;;;;;26.17;58.01;100873.03;5013107;28;45454;-92
2021/07/26 08:58:00;;;;;;;;;11.25;11.00;;;;;26.14;57.58;100872.72;5021139;28;45822;-93
2021/07/26 09:00:27;;;;;;;;;11.00;10.00;;;;;27.91;57.76;100865.09;5009106;28;46307;-92
2021/07/26 09:02:52;;;;;;;;;14.75;10.25;;;;;29.81;52.40;100867.31;5019570;28;45510;-92
2021/07/26 09:05:19;;;;;;;;;8.50;7.75;;;;;30.65;49.52;100873.88;5002132;28;47338;-91
2021/07/26 09:07:46;;;;;;;;;8.50;8.25;;;;;30.22;49.44;100881.66;5014064;28;45644;-93
2021/07/26 09:10:13;;;;;;;;;9.25;7.75;;;;;29.35;49.30;100884.47;5019440;28;46812;-91
2021/07/26 09:12:40;;;;;;;;;9.25;8.00;;;;;28.57;50.22;100889.13;5009167;28;45501;-83
2021/07/26 09:15:25;;;;;;;;;8.75;7.75;;;;;28.18;51.13;100892.16;4993816;28;46069;-84
2021/07/26 09:17:51;;;;;;;;;9.75;8.25;;;;;28.40;52.31;100881.94;4991068;28;46560;-84
2021/07/26 09:20:17;;;;;;;;;9.50;9.50;;;;;28.55;50.72;100885.84;5014809;28;45572;-84
2021/07/26 09:22:43;;;;;;;;;6.50;6.50;;;;;29.03;50.19;100887.38;4987997;28;45675;-84
2021/07/26 09:25:41;;;;;;;;;7.50;6.75;;;;;29.27;49.38;100879.53;5012343;28;45842;-84
2021/07/26 09:28:17;;;;;;;;;8.75;7.75;;;;;28.55;49.59;100878.50;4988932;28;45532;-84
2021/07/26 09:30:44;;;;;;;;;7.25;7.25;;;;;27.76;51.75;100882.09;4993065;28;48086;-83
2021/07/26 09:33:30;;;;;;;;;10.75;10.00;;;;;27.00;52.22;100883.00;5003236;28;45983;-84
2021/07/26 09:36:07;;;;;;;;;8.00;8.00;;;;;26.34;53.94;100883.81;4995794;28;45881;-84
2021/07/26 09:38:33;;;;;;;;;13.25;9.50;;;;;25.81;54.96;100878.94;5010245;28;45565;-84
2021/07/26 09:41:01;;;;;;;;;10.00;8.75;;;;;25.38;56.73;100883.94;4994549;28;46809;-87
2021/07/26 09:43:27;;;;;;;;;8.75;7.25;;;;;25.05;57.64;100880.09;5001546;28;45540;-86
2021/07/26 09:45:56;;;;;;;;;8.50;8.50;;;;;24.84;58.18;100892.38;4999660;28;45746;-89
2021/07/26 09:48:27;;;;;;;;;7.25;7.00;;;;;24.57;58.57;100886.69;4994588;28;45580;-92
2021/07/26 09:50:54;;;;;;;;;9.25;8.00;;;;;24.19;59.46;100893.41;5003519;28;47366;-90
2021/07/26 09:53:21;;;;;;;;;9.50;8.00;;;;;23.86;60.40;100893.16;4993234;28;45528;-85
2021/07/26 09:55:52;;;;;;;;;9.75;9.00;;;;;23.64;61.77;100901.81;4998143;28;45573;-85
2021/07/26 09:58:19;;;;;;;;;13.50;10.25;;;;;23.45;62.23;100897.53;5006202;28;45613;-85
2021/07/26 10:00:46;;;;;;;;;10.75;9.50;;;;;23.29;63.44;100902.50;5010916;28;47463;-84
2021/07/26 10:03:15;;;;;;;;;11.25;10.50;;;;;23.12;63.45;100907.75;4993112;28;45495;-83
2021/07/26 10:05:43;;;;;;;;;11.25;8.75;;;;;22.93;64.67;100912.31;4993520;28;45450;-84
2021/07/26 10:08:09;;;;;;;;;12.50;11.00;;;;;22.75;64.76;100909.66;4993169;28;45694;-83
2021/07/26 10:10:36;;;;;;;;;11.00;10.00;;;;;22.69;66.12;100910.53;4990834;28;47312;-87
2021/07/26 10:13:03;;;;;;;;;13.25;11.25;;;;;22.76;66.03;100911.28;4999327;28;45946;-86
2021/07/26 10:15:30;;;;;;;;;17.75;14.75;;;;;22.79;65.94;100912.72;4993448;28;45548;-83
2021/07/26 10:17:56;;;;;;;;;18.50;12.50;;;;;22.82;66.38;100904.97;5004692;28;45523;-84
2021/07/26 10:20:24;;;;;;;;;12.75;11.50;;;;;22.80;65.88;100912.50;5005535;28;48232;-84
2021/07/26 10:22:54;;;;;;;;;12.75;10.75;;;;;22.62;66.32;100909.78;4999749;28;45567;-82
2021/07/26 10:25:32;;;;;;;;;11.75;11.75;;;;;22.24;66.52;100913.50;4994962;28;45535;-84
2021/07/26 10:28:00;;;;;;;;;13.25;10.25;;;;;22.09;67.91;100914.66;4993527;28;45450;-85
2021/07/26 10:30:31;;;;;;;;;46.75;37.00;;;;;22.13;68.93;100915.00;5015131;28;48630;-83
2021/07/26 10:32:59;;;;;;;;;13.50;12.00;;;;;22.39;68.96;100913.97;5000000;28;45862;-82
2021/07/26 10:35:39;;;;;;;;;23.75;22.25;;;;;22.78;68.72;100913.78;5002610;28;45545;-81
2021/07/26 10:38:06;;;;;;;;;30.50;23.00;;;;;22.93;67.09;100911.50;4998432;28;45839;-82
2021/07/26 10:40:42;;;;;;;;;21.50;18.25;;;;;22.92;67.44;100913.38;5002253;28;46055;-83
2021/07/26 10:43:13;;;;;;;;;17.50;15.25;;;;;22.70;66.57;100918.41;4998744;28;45681;-83
2021/07/26 10:45:50;;;;;;;;;13.50;13.00;;;;;22.54;67.34;100919.81;4990538;28;45624;-84
2021/07/26 10:48:27;;;;;;;;;19.50;14.50;;;;;22.43;67.61;100915.19;5010108;28;49262;-87
2021/07/26 10:50:55;;;;;;;;;17.00;14.00;;;;;22.35;68.36;100918.16;4993229;28;45619;-85
2021/07/26 10:53:32;;;;;;;;;17.50;17.00;;;;;22.33;68.41;100918.38;4995633;28;45548;-83
2021/07/26 10:56:09;;;;;;;;;17.75;15.50;;;;;22.34;69.54;100913.81;5011773;28;45584;-84
2021/07/26 10:58:43;;;;;;;;;20.00;17.25;;;;;22.38;68.62;100912.34;4997885;28;45551;-83
2021/07/26 11:01:21;;;;;;;;;18.75;14.50;;;;;22.36;69.55;100913.59;4993708;28;48530;-83
2021/07/26 11:03:48;;;;;;;;;19.50;12.50;;;;;22.36;68.25;100911.72;4998516;28;46251;-84
2021/07/26 11:06:39;;;;;;;;;16.75;15.00;;;;;22.56;68.70;100913.41;4995065;28;45552;-85
2021/07/26 11:09:32;;;;;;;;;24.00;16.75;;;;;23.22;68.49;100903.66;4988349;28;49143;-83
2021/07/26 11:11:58;;;;;;;;;14.25;13.00;;;;;23.77;65.62;100898.91;4998095;28;48414;-86
2021/07/26 11:14:23;;;;;;;;;14.50;14.25;;;;;24.04;64.90;100893.91;4998453;28;45669;-85
2021/07/26 11:16:48;;;;;;;;;26.00;17.50;;;;;24.97;64.44;100888.56;4993647;28;45450;-85
2021/07/26 11:19:36;;;;;;;;;16.75;14.50;;;;;26.34;62.38;100885.72;4991561;28;45533;-87
2021/07/26 11:22:05;;;;;;;;;17.00;16.00;;;;;27.60;60.98;100884.69;4995984;28;51742;-86
2021/07/26 11:24:39;;;;;;;;;16.75;13.75;;;;;28.72;52.58;100872.88;5004668;28;46702;-86